Llanybydder, United Kingdom
Current Conditions -  °F | °C
As of 2:50 AM on Wednesday 26 Nov 2014 (Local Time) from EGOP Reporting Station
Overcast Overcast  
Wind Chill: 39°   Ceiling: 2100
Heat Index: 43°   Visibility: 4mi
Dew Point: 41°   Wind: 6mph
Humidity: 93%   Direction: 60°ENE
Pressure: 29.94"   Gusts: NA
Location:  52.07°N, 4.16°W
Report Text: EGOP 260250Z AUTO 06005KT 6000 // OVC021/// 06/05 Q1014
Loading
Personal Weather Stations






























Interactive Weather Map New forecast layout! Learn more

10-Day Weather Forecast

Advertisements
Track Severe Weather on mobile